Bei Facebook empfehlenBei Twitter postenGoogle plusPinterest

Das Wetter im Erzgebirge am 24.04.2015

Wetter und Klima am 24.04.2015 Holzhau im Erzgebirge (630m ü.NN)
Letzte gemessene Temperatur und Uhrzeit der Messung23:45:00 Uhr4.30 °C
Temperatur (Maximum / Höchstwert) und Uhrzeit der Messung15:15:00 Uhr19.70 °C
Temperatur (Minimum / Tiefstwert) und Uhrzeit der Messung06:15:00-0.40 °C
Errechneter Absolutwert der Temperaturschwankungen zwischen Tmin und Tmax des Tages20.10 K
Errechnete Tagesmitteltemperatur9.29896 °C
Gesamt - Niederschlag des Tages (in flüssiger Form)0.00 Liter / m²
Luftdruck (Maximum / Höchstwert) und Zeitpunkt der Messung00:15:00 Uhr1014.30 hPa
Luftdruck (Minimum / Tiefstwert) und Zeitpunkt der Messung19:15:00 Uhr1010.80 hPa
Errechneter Absolutwert der Luftdruckschwankungen des Tages3.50 hPa
Höchste gemessene Windgeschwindigkeit und Uhrzeit der Messung15:15:00 Uhr9.72 km/h
Errechnete Windhäufigkeit in Relation zu den Messwerten des Tages19.79167 %
Niedrigste Windkühle (Windchill) und Zeitpunkt der Messung05:30:00 Uhr-3.30 °C
Taupunkt (Maximum / Höchstwert) und Uhrzeit der Messung09:15:00 Uhr7.00 °C
Taupunkt (Minimum / Tiefstwert) und Uhrzeit der Messung06:15:00-1.80 °C
Anzahl der automatisch eingelesenen Messwerte 96

Detaillierte Wetter- und Klima- Messwerte für den 24.04.2015 in Holzhau im Erzgebirge (630m ü.NN)
ZeitTemperaturLuftdruckRel. LuftfeuchteWindWindrichtungWindchillTaupunktNiederschlag l/m²
23:45:004.30 °C1011.50 hPa84.00 %1.80 °C 
23:30:004.60 °C1011.70 hPa84.00 %2.10 °C 
23:15:004.60 °C1011.50 hPa83.00 %2.00 °C 
23:00:005.00 °C1011.50 hPa82.00 %2.20 °C 
22:45:005.30 °C1011.50 hPa82.00 %2.50 °C 
22:30:005.60 °C1011.50 hPa81.00 %2.60 °C 
22:15:006.10 °C1011.50 hPa80.00 %2.90 °C 
22:00:006.50 °C1011.50 hPa79.00 %3.10 °C 
21:45:006.80 °C1011.50 hPa78.00 %3.20 °C 
21:30:007.30 °C1011.50 hPa75.00 %3.20 °C 
21:15:007.80 °C1011.40 hPa74.00 %3.50 °C 
21:00:008.60 °C1011.30 hPa70.00 %3.40 °C 
20:45:009.40 °C1011.30 hPa69.00 %4.00 °C 
20:30:0010.40 °C1011.00 hPa65.00 %4.10 °C 
20:15:0011.80 °C1011.20 hPa62.00 %4.80 °C 
20:00:0012.90 °C1011.10 hPa60.00 %5.30 °C 
19:45:0013.90 °C1011.00 hPa56.00 %5.30 °C 
19:30:0015.10 °C1010.90 hPa53.00 %5.60 °C 
19:15:0015.70 °C1010.80 hPa50.00 %5.30 °C 
19:00:0015.50 °C1010.90 hPa49.00 %4.80 °C 
18:45:0015.80 °C1010.90 hPa47.00 %4.50 °C 
18:30:0016.70 °C1011.20 hPa44.00 %4.40 °C 
18:15:0017.80 °C1011.20 hPa42.00 %4.70 °C 
18:00:0017.80 °C1011.10 hPa43.00 %5.10 °C 
17:45:0017.40 °C1011.20 hPa43.00 %4.70 °C 
17:30:0018.90 °C1011.00 hPa40.00 %5.00 °C 
17:15:0019.30 °C1011.10 hPa41.00 %5.70 °C 
17:00:0018.80 °C1011.20 hPa43.00 %6.00 °C 
16:45:0018.10 °C1011.30 hPa43.00 %5.30 °C 
16:30:0017.90 °C1011.40 hPa43.00 %5.20 °C 
16:15:0018.40 °C1011.30 hPa42.00 %3.60 km/hSW18.40 °C5.30 °C 
16:00:0018.70 °C1011.60 hPa44.00 %6.20 °C 
15:45:0018.80 °C1011.60 hPa43.00 %6.84 km/hSW19.50 °C6.00 °C 
15:30:0018.60 °C1011.80 hPa41.00 %5.10 °C 
15:15:0019.70 °C1011.80 hPa40.00 %9.72 km/hSW20.20 °C5.70 °C 
15:00:0019.10 °C1011.80 hPa41.00 %5.60 °C 
14:45:0018.50 °C1012.00 hPa41.00 %5.00 °C 
14:30:0018.00 °C1012.20 hPa42.00 %4.90 °C 
14:15:0017.90 °C1012.30 hPa43.00 %5.20 °C 
14:00:0017.60 °C1012.70 hPa43.00 %4.90 °C 
13:45:0018.50 °C1012.60 hPa43.00 %3.60 km/hNW18.50 °C5.70 °C 
13:30:0018.10 °C1012.70 hPa42.00 %5.00 °C 
13:15:0017.10 °C1012.70 hPa43.00 %2.52 km/hWNW17.10 °C4.40 °C 
13:00:0016.80 °C1012.90 hPa42.00 %3.80 °C 
12:45:0016.60 °C1013.10 hPa46.00 %4.90 °C 
12:30:0017.00 °C1013.40 hPa46.00 %5.30 °C 
12:15:0016.50 °C1013.30 hPa50.00 %6.10 °C 
12:00:0016.10 °C1013.40 hPa49.00 %5.40 °C 
11:45:0015.90 °C1013.50 hPa51.00 %6.84 km/hNW16.10 °C5.80 °C 
11:30:0015.60 °C1013.50 hPa52.00 %5.80 °C 
11:15:0014.90 °C1013.80 hPa52.00 %5.10 °C 
11:00:0014.90 °C1013.70 hPa53.00 %5.40 °C 
10:45:0014.60 °C1013.90 hPa55.00 %5.70 °C 
10:30:0014.10 °C1014.00 hPa59.00 %6.20 °C 
10:15:0013.50 °C1013.80 hPa61.00 %6.10 °C 
10:00:0013.10 °C1014.00 hPa62.00 %6.00 °C 
09:45:0012.70 °C1013.80 hPa66.00 %6.50 °C 
09:30:0011.90 °C1013.80 hPa68.00 %6.20 °C 
09:15:0011.30 °C1013.80 hPa75.00 %7.00 °C 
09:00:009.90 °C1013.90 hPa82.00 %7.00 °C 
08:45:008.20 °C1013.80 hPa86.00 %6.00 °C 
08:30:006.80 °C1013.80 hPa87.00 %4.80 °C 
08:15:005.60 °C1013.60 hPa88.00 %3.80 °C 
08:00:004.40 °C1013.60 hPa89.00 %2.80 °C 
07:45:003.40 °C1013.40 hPa90.00 %1.90 °C 
07:30:002.40 °C1013.50 hPa91.00 %1.10 °C 
07:15:001.00 °C1013.30 hPa92.00 %-0.10 °C 
07:00:000.10 °C1013.30 hPa91.00 %-1.20 °C 
06:45:000.10 °C1013.40 hPa91.00 %-1.20 °C 
06:30:00-0.10 °C1013.20 hPa91.00 %5.04 km/hSO-1.70 °C-1.50 °C 
06:15:00-0.40 °C1013.40 hPa91.00 %3.96 km/hOSO-0.40 °C-1.80 °C 
06:00:00-0.40 °C1013.40 hPa91.00 %-1.80 °C 
05:45:00-0.10 °C1013.40 hPa91.00 %2.88 km/hOSO-0.10 °C-1.50 °C 
05:30:00-0.10 °C1013.30 hPa91.00 %9.36 km/hOSO-3.30 °C-1.50 °C 
05:15:00-0.20 °C1013.10 hPa91.00 %9.00 km/hOSO-3.30 °C-1.60 °C 
05:00:00-0.10 °C1013.10 hPa90.00 %-1.70 °C 
04:45:000.10 °C1013.20 hPa90.00 %-1.30 °C 
04:30:000.20 °C1013.30 hPa91.00 %-1.10 °C 
04:15:000.40 °C1013.30 hPa91.00 %6.84 km/hOSO-1.90 °C-0.90 °C 
04:00:000.40 °C1013.10 hPa91.00 %6.12 km/hOSO-1.60 °C-0.90 °C 
03:45:000.50 °C1013.20 hPa91.00 %6.84 km/hOSO-1.80 °C-0.80 °C 
03:30:000.30 °C1013.50 hPa90.00 %8.28 km/hOSO-2.50 °C-1.10 °C 
03:15:000.40 °C1013.50 hPa90.00 %-1.00 °C 
03:00:000.80 °C1013.50 hPa90.00 %-0.60 °C 
02:45:000.70 °C1013.40 hPa90.00 %-0.70 °C 
02:30:000.80 °C1013.60 hPa89.00 %-0.80 °C 
02:15:000.90 °C1013.50 hPa89.00 %-0.70 °C 
02:00:001.30 °C1013.50 hPa89.00 %-0.30 °C 
01:45:001.30 °C1013.70 hPa89.00 %-0.30 °C 
01:30:001.60 °C1013.90 hPa89.00 %5.04 km/hOSO0.20 °C0.00 °C 
01:15:001.60 °C1013.90 hPa89.00 %5.04 km/hOSO0.20 °C0.00 °C 
01:00:001.70 °C1013.90 hPa89.00 %0.10 °C 
00:45:001.90 °C1014.20 hPa88.00 %3.96 km/hOSO1.90 °C0.10 °C 
00:30:002.10 °C1014.10 hPa88.00 %5.76 km/hSO0.50 °C0.30 °C 
00:15:002.40 °C1014.30 hPa88.00 %0.60 °C 
00:00:002.60 °C1014.20 hPa88.00 %0.80 °C 

Permanenter Link zu dieser Seite: Wetter im Erzgebirge am 24.04.2015
Performance-Info: Die Erstellung der Seite / Statistik(en) / Tabelle(n) erforderte 5 Datenbankserver-Abfrage(n) und dauerte 102 Millisekunden. (Dieser Messwert ist von der Gesamt-Auslastung des Servers abhängig.)
Erzgebirge - Wetter | Erzgebirge - Wetter (Mobilgeräte) | Komplette Klimadatenbank